Time;durP1;ratioP1;P1;durP2;ratioP2;P2;SDS_P1;SDS_P2;PMS_P1;PMS_P2;Temp;Humidity;BMP_temperature;BMP_pressure;BME280_temperature;BME280_humidity;BME280_pressure;Samples;Min_cycle;Max_cycle;Signal;HPM_P1;HPM_P2
2023/02/01 00:01:31;;;;;;;;;;;;;;;25.88;37.93;95004.56;5056106;28;9669;-61
2023/02/01 00:03:59;;;;;;;;;;;;;;;25.88;36.98;95006.59;5048846;28;7053;-62
2023/02/01 00:06:29;;;;;;;;;;;;;;;25.87;37.54;95003.06;5057025;28;7309;-61
2023/02/01 00:08:59;;;;;;;;;;;;;;;25.88;36.89;95004.56;5048631;28;7030;-61
2023/02/01 00:11:31;;;;;;;;;;;;;;;25.87;37.83;95003.06;5037483;28;7051;-61
2023/02/01 00:13:57;;;;;;;;;;;;;;;25.85;37.66;94994.53;5036127;28;7113;-62
2023/02/01 00:16:29;;;;;;;;;;;;;;;25.82;37.66;94990.03;5050950;28;9104;-61
2023/02/01 00:19:08;;;;;;;;;;;;;;;25.87;37.03;94997.56;5041741;28;6983;-62
2023/02/01 00:21:34;;;;;;;;;;;;;;;25.88;36.94;94999.03;5039757;28;7229;-61
2023/02/01 00:24:03;;;;;;;;;;;;;;;25.88;37.49;94990.78;5045292;28;7330;-61
2023/02/01 00:26:39;;;;;;;;;;;;;;;25.83;36.90;94980.50;5038841;28;7222;-61
2023/02/01 00:29:17;;;;;;;;;;;;;;;25.87;37.73;94983.78;5057033;28;7225;-68
2023/02/01 00:31:46;;;;;;;;;;;;;;;25.86;37.25;94976.75;5041678;28;7286;-67
2023/02/01 00:34:15;;;;;;;;;;;;;;;25.87;37.79;94974.75;5038748;28;7349;-67
2023/02/01 00:36:44;;;;;;;;;;;;;;;25.86;36.88;94973.25;5039570;28;7030;-67
2023/02/01 00:39:11;;;;;;;;;;;;;;;25.87;36.93;94975.50;5055302;28;7064;-67
2023/02/01 00:41:40;;;;;;;;;;;;;;;25.85;37.53;94966.22;5046611;28;7084;-67
2023/02/01 00:44:07;;;;;;;;;;;;;;;25.86;37.03;94960.22;5046497;28;9454;-68
2023/02/01 00:46:54;;;;;;;;;;;;;;;25.86;37.77;94960.22;5040016;28;7111;-67
2023/02/01 00:49:50;;;;;;;;;;;;;;;25.87;37.90;94952.69;5044519;28;7452;-67
2023/02/01 00:52:18;;;;;;;;;;;;;;;25.86;37.89;94956.72;5012721;28;7100;-67
2023/02/01 00:54:44;;;;;;;;;;;;;;;25.86;37.03;94949.19;5029655;28;8579;-68
2023/02/01 00:57:10;;;;;;;;;;;;;;;25.86;37.11;94951.94;5024403;28;9434;-67
2023/02/01 00:59:36;;;;;;;;;;;;;;;25.84;36.89;94943.41;5015903;28;9105;-67
2023/02/01 01:02:03;;;;;;;;;;;;;;;25.85;37.71;94939.44;5000173;28;7987;-67
2023/02/01 01:04:32;;;;;;;;;;;;;;;25.85;37.42;94935.91;5008875;28;7111;-67
2023/02/01 01:06:58;;;;;;;;;;;;;;;25.86;37.44;94934.69;5025837;28;7721;-67
2023/02/01 01:09:24;;;;;;;;;;;;;;;25.86;37.15;94938.16;5021644;28;7107;-67
2023/02/01 01:12:19;;;;;;;;;;;;;;;25.85;37.88;94944.94;5008577;28;7333;-67
2023/02/01 01:14:45;;;;;;;;;;;;;;;25.84;37.22;94940.66;5026670;28;8576;-67
2023/02/01 01:17:24;;;;;;;;;;;;;;;25.82;37.28;94934.16;5009750;28;7415;-67
2023/02/01 01:19:56;;;;;;;;;;;;;;;25.83;37.35;94936.41;5013942;28;7462;-67
2023/02/01 01:22:40;;;;;;;;;;;;;;;25.85;37.85;94935.91;5017422;28;7026;-67
2023/02/01 01:25:17;;;;;;;;;;;;;;;25.84;37.21;94932.41;5011555;28;7018;-67
2023/02/01 01:28:15;;;;;;;;;;;;;;;25.83;37.07;94925.41;5013362;28;7251;-67
2023/02/01 01:30:43;;;;;;;;;;;;;;;25.82;37.24;94923.88;5060471;28;7224;-67
2023/02/01 01:33:26;;;;;;;;;;;;;;;25.82;37.47;94928.63;5067704;28;7051;-67
2023/02/01 01:35:59;;;;;;;;;;;;;;;25.82;36.93;94920.38;5047574;28;7275;-67
2023/02/01 01:38:25;;;;;;;;;;;;;;;25.82;37.89;94917.63;5039589;28;9034;-67
2023/02/01 01:40:50;;;;;;;;;;;;;;;25.81;37.00;94927.91;5039476;28;9022;-67
2023/02/01 01:43:20;;;;;;;;;;;;;;;25.81;37.28;94921.63;5027594;28;7034;-67
2023/02/01 01:45:57;;;;;;;;;;;;;;;25.80;37.21;94920.88;5044015;28;9234;-67
2023/02/01 01:48:33;;;;;;;;;;;;;;;25.84;37.48;94920.63;5043788;28;7029;-67
2023/02/01 01:51:12;;;;;;;;;;;;;;;25.82;37.56;94918.38;5042413;28;7273;-67
2023/02/01 01:54:00;;;;;;;;;;;;;;;25.83;37.71;94911.63;5028029;28;7382;-67
2023/02/01 01:56:30;;;;;;;;;;;;;;;25.81;37.24;94911.38;5023069;28;7186;-67
2023/02/01 01:58:58;;;;;;;;;;;;;;;25.82;37.25;94903.84;5041652;28;9086;-67
2023/02/01 02:01:31;;;;;;;;;;;;;;;25.82;37.62;94895.56;5024728;28;8991;-67
2023/02/01 02:04:33;;;;;;;;;;;;;;;25.82;37.11;94903.84;5044974;28;8790;-67
2023/02/01 02:07:08;;;;;;;;;;;;;;;25.81;37.55;94905.84;4969607;28;7388;-68
2023/02/01 02:09:36;;;;;;;;;;;;;;;25.81;36.84;94905.84;4990688;28;7205;-67
2023/02/01 02:12:32;;;;;;;;;;;;;;;25.82;37.33;94907.34;5006262;28;7320;-67
2023/02/01 02:15:01;;;;;;;;;;;;;;;25.82;37.45;94910.09;5002886;28;8911;-67
2023/02/01 02:17:57;;;;;;;;;;;;;;;25.83;37.04;94911.63;5005049;28;7085;-67
2023/02/01 02:20:42;;;;;;;;;;;;;;;25.83;37.50;94913.63;5003801;28;8849;-67
2023/02/01 02:23:50;;;;;;;;;;;;;;;25.82;37.24;94907.34;4985524;28;7266;-67
2023/02/01 02:26:53;;;;;;;;;;;;;;;25.82;36.81;94912.09;5004067;28;7415;-67
2023/02/01 02:29:56;;;;;;;;;;;;;;;25.81;37.06;94916.88;4991776;28;7614;-67
2023/02/01 02:33:12;;;;;;;;;;;;;;;25.81;36.88;94924.38;4988983;28;7041;-67
2023/02/01 02:36:08;;;;;;;;;;;;;;;25.79;37.03;94919.38;4911452;29;7011;-67
2023/02/01 02:38:48;;;;;;;;;;;;;;;25.80;37.20;94929.13;4925177;29;8680;-67
2023/02/01 02:47:46;;;;;;;;;;;;;;;25.81;36.92;94924.38;4921734;29;8830;-67
2023/02/01 03:04:25;;;;;;;;;;;;;;;25.81;37.37;94930.66;4922303;29;7047;-67
2023/02/01 03:07:34;;;;;;;;;;;;;;;25.81;37.15;94936.16;4966856;28;8825;-67
2023/02/01 03:10:09;;;;;;;;;;;;;;;25.82;37.60;94934.16;5001262;28;7176;-67
2023/02/01 03:12:58;;;;;;;;;;;;;;;25.82;37.27;94934.16;4985331;28;7635;-67
2023/02/01 03:15:34;;;;;;;;;;;;;;;25.80;36.82;94934.66;4997282;28;7051;-67
2023/02/01 03:18:17;;;;;;;;;;;;;;;25.79;36.84;94941.44;4987822;28;7015;-67
2023/02/01 03:21:25;;;;;;;;;;;;;;;25.80;37.87;94942.16;5006418;28;7138;-67
2023/02/01 03:24:00;;;;;;;;;;;;;;;25.81;37.30;94940.94;4950881;28;7034;-67
2023/02/01 03:26:56;;;;;;;;;;;;;;;25.81;37.84;94932.66;4986502;28;7896;-66
2023/02/01 03:30:11;;;;;;;;;;;;;;;25.80;36.82;94934.66;4992980;28;7034;-66
2023/02/01 03:33:03;;;;;;;;;;;;;;;25.78;37.58;94933.66;4949221;28;9006;-66
2023/02/01 03:35:35;;;;;;;;;;;;;;;25.79;37.92;94941.44;4947482;28;7016;-66
2023/02/01 03:38:11;;;;;;;;;;;;;;;25.77;36.96;94927.41;4950143;28;7132;-67
2023/02/01 03:40:40;;;;;;;;;;;;;;;25.80;37.13;94929.13;4947694;28;8757;-66
2023/02/01 03:43:18;;;;;;;;;;;;;;;25.79;36.94;94921.38;4943107;28;7243;-66
2023/02/01 03:45:57;;;;;;;;;;;;;;;25.78;36.87;94928.13;4946304;28;8037;-67
2023/02/01 03:48:29;;;;;;;;;;;;;;;25.78;37.59;94947.41;4929513;28;7150;-66
2023/02/01 03:51:08;;;;;;;;;;;;;;;25.79;37.79;94946.19;4947908;28;9112;-66
2023/02/01 03:53:40;;;;;;;;;;;;;;;25.76;37.80;94930.63;4940577;28;7248;-67
2023/02/01 03:56:21;;;;;;;;;;;;;;;25.78;37.11;94944.66;4927661;28;9031;-66
2023/02/01 03:58:58;;;;;;;;;;;;;;;25.78;37.09;94945.41;4961688;28;7070;-66
2023/02/01 04:01:40;;;;;;;;;;;;;;;25.76;37.75;94936.91;4952081;28;9105;-66
2023/02/01 04:04:35;;;;;;;;;;;;;;;25.78;36.78;94942.66;4960268;28;7158;-66
2023/02/01 04:07:04;;;;;;;;;;;;;;;25.79;37.00;94930.41;4879343;29;8987;-67
2023/02/01 04:09:31;;;;;;;;;;;;;;;25.79;37.53;94924.91;4938652;28;7260;-66
2023/02/01 04:11:57;;;;;;;;;;;;;;;25.77;37.14;94924.66;4960721;28;7265;-66
2023/02/01 04:14:25;;;;;;;;;;;;;;;25.79;36.94;94924.91;4957805;28;7497;-66
2023/02/01 04:16:51;;;;;;;;;;;;;;;25.78;37.58;94912.34;4943030;28;7041;-66
2023/02/01 04:19:17;;;;;;;;;;;;;;;25.78;37.15;94914.34;4951351;28;7273;-67
2023/02/01 04:21:45;;;;;;;;;;;;;;;25.78;37.00;94908.84;4962020;28;7331;-66
2023/02/01 04:24:14;;;;;;;;;;;;;;;25.77;37.41;94910.88;4941685;28;7325;-67
2023/02/01 04:26:43;;;;;;;;;;;;;;;25.78;37.78;94914.34;4956434;28;7284;-67
2023/02/01 04:29:10;;;;;;;;;;;;;;;25.78;37.00;94919.88;4959274;28;7333;-67
2023/02/01 04:31:36;;;;;;;;;;;;;;;25.77;37.58;94921.88;4946944;28;7228;-67
2023/02/01 04:34:02;;;;;;;;;;;;;;;25.76;37.08;94920.38;4947689;28;9363;-67
2023/02/01 04:36:28;;;;;;;;;;;;;;;25.76;37.18;94931.41;4957380;28;9025;-67
2023/02/01 04:38:54;;;;;;;;;;;;;;;25.75;37.50;94921.63;4944334;28;7024;-67
2023/02/01 04:41:22;;;;;;;;;;;;;;;25.77;37.46;94943.94;4932886;28;7546;-67
2023/02/01 04:43:53;;;;;;;;;;;;;;;25.75;37.19;94938.13;5018510;28;7236;-67
2023/02/01 04:46:21;;;;;;;;;;;;;;;25.74;37.53;94938.66;5054126;28;9295;-67
2023/02/01 04:49:26;;;;;;;;;;;;;;;25.77;36.98;94941.19;5055221;28;9406;-67
2023/02/01 04:51:53;;;;;;;;;;;;;;;25.77;37.51;94949.44;4989190;28;7355;-67
2023/02/01 04:54:20;;;;;;;;;;;;;;;25.77;37.86;94952.19;4986639;28;8479;-66
2023/02/01 04:57:24;;;;;;;;;;;;;;;25.77;37.20;94954.94;4987134;28;9182;-66
2023/02/01 04:59:56;;;;;;;;;;;;;;;25.75;37.29;94976.00;4985551;28;8637;-66
2023/02/01 05:02:22;;;;;;;;;;;;;;;25.76;37.28;94977.47;4981283;28;7355;-67
2023/02/01 05:04:48;;;;;;;;;;;;;;;25.73;37.46;94981.97;4977386;28;9030;-67
2023/02/01 05:07:19;;;;;;;;;;;;;;;25.76;37.81;94986.50;5000392;28;7347;-67
2023/02/01 05:09:48;;;;;;;;;;;;;;;25.77;37.02;94988.03;4980230;28;9261;-67
2023/02/01 05:15:22;;;;;;;;;;;;;;;25.78;37.49;94995.03;5004411;28;7304;-67
2023/02/01 05:18:18;;;;;;;;;;;;;;;25.78;37.27;95011.56;5002889;28;7275;-67
2023/02/01 05:21:05;;;;;;;;;;;;;;;25.76;37.39;94997.53;4932231;28;7192;-67
2023/02/01 05:26:43;;;;;;;;;;;;;;;25.75;37.50;94996.00;4960483;28;7220;-67
2023/02/01 05:29:12;;;;;;;;;;;;;;;25.75;37.35;94987.00;4971368;28;7261;-66
2023/02/01 05:31:40;;;;;;;;;;;;;;;25.75;37.80;94989.75;4950443;28;7369;-67
2023/02/01 05:34:19;;;;;;;;;;;;;;;25.74;37.03;94991.75;4951932;28;7089;-66
2023/02/01 05:37:03;;;;;;;;;;;;;;;25.77;37.59;95001.03;4948006;28;7377;-66
2023/02/01 05:39:28;;;;;;;;;;;;;;;25.76;37.71;95000.28;4951379;28;9279;-66
2023/02/01 05:41:54;;;;;;;;;;;;;;;25.76;36.73;94996.75;4969382;28;9538;-67
2023/02/01 05:44:52;;;;;;;;;;;;;;;25.77;37.93;94996.28;4949007;28;7105;-66
2023/02/01 05:47:26;;;;;;;;;;;;;;;25.75;37.35;94996.00;4959810;28;9477;-67
2023/02/01 05:49:52;;;;;;;;;;;;;;;25.77;37.81;94995.53;4963653;28;9401;-66
2023/02/01 05:52:21;;;;;;;;;;;;;;;25.78;37.41;94989.50;4950686;28;9265;-66
2023/02/01 05:54:48;;;;;;;;;;;;;;;25.79;37.90;94970.97;4955933;28;7170;-66
2023/02/01 05:57:17;;;;;;;;;;;;;;;25.79;37.95;94968.97;4987180;28;9199;-66
2023/02/01 05:59:45;;;;;;;;;;;;;;;25.78;37.87;94966.72;5026888;28;9036;-67
2023/02/01 06:02:12;;;;;;;;;;;;;;;25.80;37.42;94970.47;5024291;28;7183;-66
2023/02/01 06:04:51;;;;;;;;;;;;;;;25.80;37.44;94975.22;5029860;28;7056;-65
2023/02/01 06:07:18;;;;;;;;;;;;;;;25.77;38.34;94982.50;5022497;28;7252;-66
2023/02/01 06:09:53;;;;;;;;;;;;;;;25.81;37.79;94988.53;5022824;28;7311;-66
2023/02/01 06:12:24;;;;;;;;;;;;;;;25.81;37.22;94988.53;5034750;28;8751;-65
2023/02/01 06:14:51;;;;;;;;;;;;;;;25.80;37.79;94986.25;5020171;28;7045;-66
2023/02/01 06:17:20;;;;;;;;;;;;;;;25.81;37.28;94998.78;5030111;28;9216;-66
2023/02/01 06:20:16;;;;;;;;;;;;;;;25.79;37.41;95007.56;5038207;28;7362;-65
2023/02/01 06:22:46;;;;;;;;;;;;;;;25.80;37.72;94994.50;4949979;28;9093;-67
2023/02/01 06:25:17;;;;;;;;;;;;;;;25.79;36.48;94985.53;4945813;28;8999;-67
2023/02/01 06:27:52;;;;;;;;;;;;;;;25.80;36.97;95008.28;4960249;28;7338;-67
2023/02/01 06:30:18;;;;;;;;;;;;;;;25.78;36.98;95019.81;4940045;28;8157;-67
2023/02/01 06:32:44;;;;;;;;;;;;;;;25.77;37.87;95021.09;4937530;28;7311;-67
2023/02/01 06:35:15;;;;;;;;;;;;;;;25.82;37.29;95016.81;4938085;28;7140;-67
2023/02/01 06:37:42;;;;;;;;;;;;;;;25.83;36.87;95012.81;4943527;28;9177;-65
2023/02/01 06:40:10;;;;;;;;;;;;;;;25.83;37.42;95021.09;4953265;28;7326;-66
2023/02/01 06:42:37;;;;;;;;;;;;;;;25.82;37.12;95006.56;4950003;28;9358;-65
2023/02/01 06:45:23;;;;;;;;;;;;;;;25.81;37.05;95016.09;4957592;28;8727;-65
2023/02/01 06:47:49;;;;;;;;;;;;;;;25.78;36.85;95003.28;4964371;28;7317;-66
2023/02/01 06:50:35;;;;;;;;;;;;;;;25.79;37.49;95010.31;4962014;28;7061;-66
2023/02/01 06:53:11;;;;;;;;;;;;;;;25.77;37.19;95021.09;4949064;28;7152;-66
2023/02/01 06:55:38;;;;;;;;;;;;;;;25.80;37.52;95008.28;4970110;28;7032;-66
2023/02/01 06:58:06;;;;;;;;;;;;;;;25.86;37.62;95020.09;4979377;28;7291;-66
2023/02/01 07:00:34;;;;;;;;;;;;;;;25.83;37.29;95018.34;5055618;28;7872;-66
2023/02/01 07:03:36;;;;;;;;;;;;;;;25.81;37.85;95012.56;5048696;28;7376;-66
2023/02/01 07:06:09;;;;;;;;;;;;;;;25.79;37.85;95010.31;5065121;28;7262;-66
2023/02/01 07:08:44;;;;;;;;;;;;;;;25.76;37.84;95008.53;5053122;28;7213;-66
2023/02/01 07:11:30;;;;;;;;;;;;;;;25.76;37.76;95016.06;5064758;28;7171;-66
2023/02/01 07:14:07;;;;;;;;;;;;;;;25.75;37.92;95012.53;5052496;28;7219;-66
2023/02/01 07:16:35;;;;;;;;;;;;;;;25.75;37.99;95028.34;5045344;28;9356;-66
2023/02/01 07:19:02;;;;;;;;;;;;;;;25.75;37.90;95040.09;5066962;28;7013;-66
2023/02/01 07:21:28;;;;;;;;;;;;;;;25.75;38.08;95051.13;5046065;28;7007;-66
2023/02/01 07:24:01;;;;;;;;;;;;;;;25.75;38.46;95053.88;5043518;28;7150;-65
2023/02/01 07:26:27;;;;;;;;;;;;;;;25.73;38.40;95059.13;5062218;28;9061;-65
2023/02/01 07:28:55;;;;;;;;;;;;;;;25.72;38.01;95068.66;5051391;28;7053;-65
2023/02/01 07:31:26;;;;;;;;;;;;;;;25.74;38.19;95070.91;5047355;28;9668;-65
2023/02/01 07:33:52;;;;;;;;;;;;;;;25.75;38.94;95080.69;5063501;28;9522;-65
2023/02/01 07:36:21;;;;;;;;;;;;;;;25.74;38.25;95093.72;5049830;28;9651;-65
2023/02/01 07:38:47;;;;;;;;;;;;;;;25.72;38.31;95082.44;5066060;28;8523;-66
2023/02/01 07:41:13;;;;;;;;;;;;;;;25.75;39.47;95089.69;5053280;28;7280;-66
2023/02/01 07:43:41;;;;;;;;;;;;;;;25.75;38.35;95086.94;5051532;28;9412;-66
2023/02/01 07:46:10;;;;;;;;;;;;;;;25.75;38.60;95095.19;5046032;28;8724;-66
2023/02/01 07:48:38;;;;;;;;;;;;;;;25.75;39.33;95097.22;5052672;28;9320;-66
2023/02/01 07:51:37;;;;;;;;;;;;;;;25.77;38.60;95089.97;5045774;28;7267;-66
2023/02/01 07:54:12;;;;;;;;;;;;;;;25.77;39.58;95097.47;4973766;28;7401;-66
2023/02/01 07:57:13;;;;;;;;;;;;;;;25.77;39.56;95103.00;4975156;28;9193;-66
2023/02/01 08:01:19;;;;;;;;;;;;;;;25.76;39.09;95101.47;4959411;28;7058;-66
2023/02/01 08:02:25;;;;;;;;;;;;;;;25.76;39.58;95096.72;4984580;28;6987;-66
2023/02/01 08:04:52;;;;;;;;;;;;;;;25.75;39.47;95088.97;4978253;28;8841;-66
2023/02/01 08:07:27;;;;;;;;;;;;;;;25.76;39.19;95099.47;4975180;28;7283;-56
2023/02/01 08:10:00;;;;;;;;;;;;;;;25.76;39.08;95099.47;4978528;28;9059;-56
2023/02/01 08:12:38;;;;;;;;;;;;;;;25.76;38.75;95098.72;4966730;28;7034;-56
2023/02/01 08:15:06;;;;;;;;;;;;;;;25.77;38.68;95106.50;4974697;28;9097;-56
2023/02/01 08:17:52;;;;;;;;;;;;;;;25.77;39.49;95097.47;4984970;28;9007;-56
2023/02/01 08:20:18;;;;;;;;;;;;;;;25.76;38.37;95107.75;4980964;28;8945;-56
2023/02/01 08:23:00;;;;;;;;;;;;;;;25.76;39.17;95104.22;4969383;28;9412;-56
2023/02/01 08:26:05;;;;;;;;;;;;;;;25.75;38.44;95089.69;4981212;28;7237;-56
2023/02/01 08:28:51;;;;;;;;;;;;;;;25.75;38.29;95095.19;4939285;28;9006;-56
2023/02/01 08:31:33;;;;;;;;;;;;;;;25.76;39.05;95095.97;4977436;28;7298;-56
2023/02/01 08:34:18;;;;;;;;;;;;;;;25.76;38.68;95084.94;4984807;28;9244;-61
2023/02/01 08:37:01;;;;;;;;;;;;;;;25.75;38.45;95086.94;4989964;28;7974;-61
2023/02/01 08:39:27;;;;;;;;;;;;;;;25.75;39.42;95080.69;4993430;28;7363;-61
2023/02/01 08:44:46;;;;;;;;;;;;;;;25.74;38.32;95077.19;4992760;28;7274;-61
2023/02/01 08:47:17;;;;;;;;;;;;;;;25.72;38.68;95078.91;4968218;28;9776;-61
2023/02/01 08:50:35;;;;;;;;;;;;;;;25.72;38.96;95065.91;4975578;28;10151;-61
2023/02/01 08:53:13;;;;;;;;;;;;;;;25.74;38.88;95065.41;4984867;28;9058;-61
2023/02/01 08:56:22;;;;;;;;;;;;;;;25.74;39.18;95068.16;4982663;28;7291;-61
2023/02/01 08:58:50;;;;;;;;;;;;;;;25.74;38.14;95076.41;4967913;28;7186;-61
2023/02/01 09:01:25;;;;;;;;;;;;;;;25.72;38.31;95065.13;4974479;28;7030;-61
2023/02/01 09:04:05;;;;;;;;;;;;;;;25.73;38.87;95061.16;4989942;28;9296;-61
2023/02/01 09:06:34;;;;;;;;;;;;;;;25.74;38.98;95068.91;5052884;28;7057;-61
2023/02/01 09:09:01;;;;;;;;;;;;;;;25.74;38.59;95076.41;5053384;28;9615;-61
2023/02/01 09:11:38;;;;;;;;;;;;;;;25.73;38.15;95072.91;5056453;28;7010;-61
2023/02/01 09:14:16;;;;;;;;;;;;;;;25.73;37.96;95081.16;5057594;28;7033;-61
2023/02/01 09:17:21;;;;;;;;;;;;;;;25.75;39.03;95092.44;5038476;28;7035;-61
2023/02/01 09:19:49;;;;;;;;;;;;;;;25.76;38.21;95098.72;5061642;28;7208;-61
2023/02/01 09:22:18;;;;;;;;;;;;;;;25.75;38.48;95089.69;5057697;28;8752;-61
2023/02/01 09:24:48;;;;;;;;;;;;;;;25.74;37.72;95079.94;5059046;28;7352;-61
2023/02/01 09:27:21;;;;;;;;;;;;;;;25.75;38.83;95078.66;5051126;28;7321;-61
2023/02/01 09:29:52;;;;;;;;;;;;;;;25.75;38.51;95070.41;5036099;28;9386;-62
2023/02/01 09:32:20;;;;;;;;;;;;;;;25.76;38.78;95068.41;5060111;28;7284;-61
2023/02/01 09:34:49;;;;;;;;;;;;;;;25.76;38.23;95066.41;5051237;28;8914;-61
2023/02/01 09:37:20;;;;;;;;;;;;;;;25.77;38.29;95064.41;5046599;28;7332;-61
2023/02/01 09:39:46;;;;;;;;;;;;;;;25.76;37.96;95069.16;5054316;28;7229;-61
2023/02/01 09:42:17;;;;;;;;;;;;;;;25.77;38.55;95073.44;5059987;28;8967;-64
2023/02/01 09:48:31;;;;;;;;;;;;;;;25.77;38.11;95089.97;5025146;28;9251;-63
2023/02/01 09:51:03;;;;;;;;;;;;;;;25.78;38.13;95096.97;5008445;28;9023;-64
2023/02/01 09:53:40;;;;;;;;;;;;;;;25.80;37.70;95099.22;5003245;28;7192;-64
2023/02/01 09:56:39;;;;;;;;;;;;;;;25.79;37.77;95097.75;5008583;28;9511;-64
2023/02/01 09:59:23;;;;;;;;;;;;;;;25.77;38.35;95092.72;4948468;28;9783;-65
2023/02/01 10:01:49;;;;;;;;;;;;;;;25.78;37.64;95091.47;4926563;28;7275;-56
2023/02/01 10:04:17;;;;;;;;;;;;;;;25.80;37.69;95086.22;4933279;28;7031;-56
2023/02/01 10:07:21;;;;;;;;;;;;;;;25.82;38.51;95088.47;4932781;28;8803;-56
2023/02/01 10:10:04;;;;;;;;;;;;;;;25.81;37.83;95081.47;4928908;28;8644;-56
2023/02/01 10:12:40;;;;;;;;;;;;;;;25.80;38.56;95075.19;4948680;28;7241;-56
2023/02/01 10:18:33;;;;;;;;;;;;;;;25.80;38.04;95072.44;4951897;28;7344;-56
2023/02/01 10:21:41;;;;;;;;;;;;;;;25.80;38.11;95079.94;4940425;28;7610;-56
2023/02/01 10:24:18;;;;;;;;;;;;;;;25.81;38.60;95081.47;4925703;28;8670;-56
2023/02/01 10:27:01;;;;;;;;;;;;;;;25.81;38.48;95081.47;4952690;28;7046;-60
2023/02/01 10:29:36;;;;;;;;;;;;;;;25.81;38.26;95082.22;4951305;28;7737;-60
2023/02/01 10:32:12;;;;;;;;;;;;;;;25.81;37.65;95079.47;4958049;28;9545;-61
2023/02/01 10:34:39;;;;;;;;;;;;;;;25.83;38.37;95087.22;4981977;28;8715;-61
2023/02/01 10:37:28;;;;;;;;;;;;;;;25.85;37.61;95081.97;5061143;28;7333;-65
2023/02/01 10:39:57;;;;;;;;;;;;;;;25.83;38.26;95082.47;5055083;28;9668;-65
2023/02/01 10:42:29;;;;;;;;;;;;;;;25.81;38.52;95078.69;5038270;28;9064;-65
2023/02/01 10:45:03;;;;;;;;;;;;;;;25.83;37.67;95081.72;5048538;28;7116;-65
2023/02/01 10:47:31;;;;;;;;;;;;;;;25.82;38.46;95072.69;5054242;28;7035;-65
2023/02/01 10:50:16;;;;;;;;;;;;;;;25.82;37.68;95069.94;5037350;28;8670;-65
2023/02/01 10:53:25;;;;;;;;;;;;;;;25.82;37.86;95069.16;5062466;28;7279;-61
2023/02/01 10:55:54;;;;;;;;;;;;;;;25.81;38.26;95065.69;5057406;28;7657;-61
2023/02/01 10:58:31;;;;;;;;;;;;;;;25.82;38.07;95058.91;5042624;28;7253;-61
2023/02/01 11:01:06;;;;;;;;;;;;;;;25.83;38.46;95052.16;5060928;28;7196;-61
2023/02/01 11:03:54;;;;;;;;;;;;;;;25.86;38.23;95058.69;5047263;28;9010;-61
2023/02/01 11:06:35;;;;;;;;;;;;;;;25.87;38.51;95060.94;5039011;28;7588;-61
2023/02/01 11:09:29;;;;;;;;;;;;;;;25.89;38.22;95055.69;5057711;28;7847;-61
2023/02/01 11:12:27;;;;;;;;;;;;;;;25.89;39.42;95052.16;4951233;28;7249;-62
2023/02/01 11:15:18;;;;;;;;;;;;;;;25.93;40.35;95058.19;4965202;28;7419;-61
2023/02/01 11:17:58;;;;;;;;;;;;;;;25.91;39.33;95046.91;4957097;28;8479;-61
2023/02/01 11:20:42;;;;;;;;;;;;;;;25.93;39.54;95058.19;4963815;28;7112;-61
2023/02/01 11:23:19;;;;;;;;;;;;;;;25.93;39.67;95049.91;4968804;28;9033;-61
2023/02/01 11:26:13;;;;;;;;;;;;;;;25.94;39.55;95040.41;4965423;28;7596;-61
2023/02/01 11:29:05;;;;;;;;;;;;;;;25.96;39.40;95041.44;4947789;28;7639;-62
2023/02/01 11:31:42;;;;;;;;;;;;;;;25.96;38.58;95038.66;4955249;28;9050;-61
2023/02/01 11:34:20;;;;;;;;;;;;;;;25.95;38.91;95034.38;4968223;28;9038;-61
2023/02/01 11:36:49;;;;;;;;;;;;;;;25.94;39.30;95034.91;4949600;28;9746;-62
2023/02/01 11:39:22;;;;;;;;;;;;;;;25.98;39.39;95027.91;4959292;28;7236;-62
2023/02/01 11:41:57;;;;;;;;;;;;;;;26.01;38.62;95031.66;4974429;28;9035;-62
2023/02/01 11:45:14;;;;;;;;;;;;;;;26.00;39.55;95019.88;4964239;28;7038;-62
2023/02/01 11:47:53;;;;;;;;;;;;;;;26.02;38.99;95017.38;4963631;28;7134;-62
2023/02/01 11:50:58;;;;;;;;;;;;;;;26.01;38.64;95018.59;5056524;28;7108;-61
2023/02/01 11:53:39;;;;;;;;;;;;;;;26.05;38.75;95007.34;4995927;28;7592;-62
2023/02/01 11:56:35;;;;;;;;;;;;;;;26.07;38.42;95008.38;4995157;28;9062;-62
2023/02/01 11:59:32;;;;;;;;;;;;;;;26.09;38.98;94992.09;4977881;28;7472;-62
2023/02/01 12:02:19;;;;;;;;;;;;;;;26.10;39.06;94988.09;4986835;28;7806;-61
2023/02/01 12:05:16;;;;;;;;;;;;;;;26.11;39.31;94978.56;4995738;28;7040;-62
2023/02/01 12:08:29;;;;;;;;;;;;;;;26.12;38.80;94963.53;4985207;28;7201;-62
2023/02/01 12:11:15;;;;;;;;;;;;;;;26.15;38.66;94967.28;4997576;28;9031;-61
2023/02/01 12:14:13;;;;;;;;;;;;;;;26.17;39.22;94971.06;4987817;28;7219;-62
2023/02/01 12:17:13;;;;;;;;;;;;;;;26.22;39.33;94968.78;4992371;28;7225;-62
2023/02/01 12:20:03;;;;;;;;;;;;;;;26.27;39.27;94974.31;4975323;28;7227;-61
2023/02/01 12:22:56;;;;;;;;;;;;;;;26.30;38.79;94969.78;4948874;28;7288;-62
2023/02/01 12:25:42;;;;;;;;;;;;;;;26.30;38.69;94956.75;4998411;28;7288;-61
2023/02/01 12:28:27;;;;;;;;;;;;;;;26.31;38.75;94954.75;4982915;28;6953;-61
2023/02/01 12:31:23;;;;;;;;;;;;;;;26.31;39.18;94943.72;5039385;28;7587;-61
2023/02/01 12:34:22;;;;;;;;;;;;;;;26.33;39.19;94938.47;5061411;28;9040;-62
2023/02/01 12:36:59;;;;;;;;;;;;;;;26.38;39.19;94949.47;5062859;28;8797;-61
2023/02/01 12:39:46;;;;;;;;;;;;;;;26.36;38.78;94938.19;5047522;28;7043;-62
2023/02/01 12:42:22;;;;;;;;;;;;;;;26.34;39.26;94926.91;5048300;28;7525;-62
2023/02/01 12:44:51;;;;;;;;;;;;;;;26.36;39.11;94932.69;5050888;28;7627;-62
2023/02/01 12:47:30;;;;;;;;;;;;;;;26.28;38.68;94919.91;5045887;28;9012;-62
2023/02/01 12:50:21;;;;;;;;;;;;;;;26.27;39.14;94937.72;5051914;28;7022;-62
2023/02/01 12:52:51;;;;;;;;;;;;;;;26.23;38.75;94928.94;5059015;28;7277;-62
2023/02/01 12:55:24;;;;;;;;;;;;;;;26.22;39.44;94932.94;5043006;28;9517;-62
2023/02/01 12:58:26;;;;;;;;;;;;;;;26.21;38.52;94936.97;5054801;28;9114;-62
2023/02/01 13:01:32;;;;;;;;;;;;;;;26.22;38.57;94941.97;4956665;28;7910;-62
2023/02/01 13:04:36;;;;;;;;;;;;;;;26.20;39.31;94932.69;4918926;28;9795;-62
2023/02/01 13:07:30;;;;;;;;;;;;;;;26.20;39.16;94927.19;4907418;29;8187;-62
2023/02/01 13:10:05;;;;;;;;;;;;;;;26.17;38.88;94932.44;4937599;28;7694;-62
2023/02/01 13:12:44;;;;;;;;;;;;;;;26.19;38.64;94931.22;4931857;28;7205;-62
2023/02/01 13:15:30;;;;;;;;;;;;;;;26.16;39.26;94925.41;4913772;28;9064;-62
2023/02/01 13:18:05;;;;;;;;;;;;;;;26.18;39.22;94911.16;4937713;28;7281;-62
2023/02/01 13:20:45;;;;;;;;;;;;;;;26.18;39.23;94911.16;4937403;28;7042;-62
2023/02/01 13:23:25;;;;;;;;;;;;;;;26.22;38.93;94913.66;4925166;28;7078;-62
2023/02/01 13:25:53;;;;;;;;;;;;;;;26.21;39.03;94903.88;4935846;28;7647;-62
2023/02/01 13:28:29;;;;;;;;;;;;;;;26.20;38.53;94907.88;4930993;28;7032;-62
2023/02/01 13:31:22;;;;;;;;;;;;;;;26.20;38.58;94916.16;4936050;28;9049;-62
2023/02/01 13:34:36;;;;;;;;;;;;;;;26.21;38.58;94912.88;4927673;28;8178;-62
2023/02/01 13:37:09;;;;;;;;;;;;;;;26.22;38.30;94910.88;4947856;28;9365;-62
2023/02/01 13:40:02;;;;;;;;;;;;;;;26.22;38.75;94911.66;5016583;28;7212;-62
2023/02/01 13:42:57;;;;;;;;;;;;;;;26.27;38.68;94902.63;5008731;28;9157;-61
2023/02/01 13:45:57;;;;;;;;;;;;;;;26.29;38.25;94910.38;5008539;28;7785;-62
2023/02/01 13:49:04;;;;;;;;;;;;;;;26.34;38.82;94895.84;4996187;28;7032;-61
2023/02/01 13:51:40;;;;;;;;;;;;;;;26.38;38.36;94897.06;5012348;28;7305;-62
2023/02/01 13:54:55;;;;;;;;;;;;;;;26.40;38.70;94904.88;4997982;28;7101;-62
2023/02/01 13:57:40;;;;;;;;;;;;;;;26.44;38.06;94894.31;5028716;28;8804;-62
2023/02/01 14:00:43;;;;;;;;;;;;;;;26.47;37.72;94888.53;5009793;28;7249;-62
2023/02/01 14:03:15;;;;;;;;;;;;;;;26.50;37.87;94904.09;5019357;28;9017;-62
2023/02/01 14:05:42;;;;;;;;;;;;;;;26.54;37.98;94895.53;5017422;28;9049;-62
2023/02/01 14:08:13;;;;;;;;;;;;;;;26.57;38.26;94895.31;5000962;28;9340;-62
2023/02/01 14:10:47;;;;;;;;;;;;;;;26.56;37.87;94890.28;5012091;28;9371;-62
2023/02/01 14:13:38;;;;;;;;;;;;;;;26.53;37.91;94886.53;5056301;28;7312;-62
2023/02/01 14:16:04;;;;;;;;;;;;;;;26.52;37.65;94882.25;5050512;28;9299;-62
2023/02/01 14:21:30;;;;;;;;;;;;;;;26.55;38.24;94895.06;5054405;28;8700;-61
2023/02/01 14:24:08;;;;;;;;;;;;;;;26.55;38.53;94894.31;5049831;28;9213;-62
2023/02/01 14:26:52;;;;;;;;;;;;;;;26.54;37.51;94896.31;5075140;28;6864;-62
2023/02/01 14:29:38;;;;;;;;;;;;;;;26.54;38.23;94903.81;5071047;28;7290;-62
2023/02/01 14:32:30;;;;;;;;;;;;;;;26.54;37.57;94923.13;5041910;28;7026;-62
2023/02/01 14:35:34;;;;;;;;;;;;;;;26.54;37.68;94921.13;5048206;28;9213;-62
2023/02/01 14:38:03;;;;;;;;;;;;;;;26.52;37.25;94928.41;5055042;28;7497;-62